createdAt,value
2023-05-05T00:00:49.902Z,66.0384
2023-05-05T00:01:52.355Z,65.3501
2023-05-05T00:02:54.866Z,65.7614
2023-05-05T00:03:57.574Z,65.7067
2023-05-05T00:05:00.008Z,64.3552
2023-05-05T00:06:02.459Z,64.5416
2023-05-05T00:07:04.909Z,63.5395
2023-05-05T00:08:07.577Z,61.6895
2023-05-05T00:09:10.054Z,61.8704
2023-05-05T00:10:12.486Z,63.4239
2023-05-05T00:11:15.259Z,65.4807
2023-05-05T00:12:17.761Z,66.4888
2023-05-05T00:13:20.364Z,67.0564
2023-05-05T00:14:22.811Z,67.5457
2023-05-05T00:15:25.289Z,67.6220
2023-05-05T00:16:28.047Z,68.1480
2023-05-05T00:17:30.516Z,68.5685
2023-05-05T00:18:33.019Z,69.1437
2023-05-05T00:19:35.473Z,69.1348
2023-05-05T00:20:37.953Z,68.5192
2023-05-05T00:21:40.429Z,67.4185
2023-05-05T00:22:42.930Z,67.4890
2023-05-05T00:23:45.406Z,67.8246
2023-05-05T00:24:47.902Z,67.9166
2023-05-05T00:25:50.773Z,67.3071
2023-05-05T00:26:53.276Z,67.1545
2023-05-05T00:27:55.783Z,67.6612
2023-05-05T00:28:58.280Z,68.0502
2023-05-05T00:30:00.780Z,67.8660
2023-05-05T00:31:03.283Z,67.7414
2023-05-05T00:32:05.787Z,67.8378
2023-05-05T00:33:08.353Z,68.0520
2023-05-05T00:34:10.898Z,67.4859
2023-05-05T00:35:13.392Z,68.1217
2023-05-05T00:36:15.861Z,68.2221
2023-05-05T00:37:18.371Z,68.6958
2023-05-05T00:38:21.101Z,68.3928
2023-05-05T00:39:23.613Z,68.5560
2023-05-05T00:40:26.134Z,68.6696
2023-05-05T00:41:28.681Z,67.8797
2023-05-05T00:42:31.202Z,68.4363
2023-05-05T00:43:33.766Z,67.9573
2023-05-05T00:44:36.306Z,67.9765
2023-05-05T00:45:38.796Z,68.0584
2023-05-05T00:46:41.435Z,68.6400
2023-05-05T00:47:43.941Z,68.6714
2023-05-05T00:48:46.419Z,69.3711
2023-05-05T00:49:48.916Z,69.4741
2023-05-05T00:50:51.388Z,69.8741
2023-05-05T00:51:53.840Z,70.0676
2023-05-05T00:52:56.317Z,70.3777
2023-05-05T00:53:58.823Z,70.7033
2023-05-05T00:55:01.318Z,71.0545
2023-05-05T00:56:03.762Z,71.1192
2023-05-05T00:57:06.219Z,71.4098
2023-05-05T00:58:08.686Z,71.6485
2023-05-05T00:59:11.148Z,71.6181
2023-05-05T01:00:13.631Z,72.0823
2023-05-05T01:01:16.100Z,72.0856
2023-05-05T01:02:18.539Z,72.2586
2023-05-05T01:03:21.051Z,72.4280
2023-05-05T01:04:23.550Z,72.4622
2023-05-05T01:05:25.974Z,72.6036
2023-05-05T01:06:28.462Z,72.8904
2023-05-05T01:07:30.907Z,73.0492
2023-05-05T01:08:33.373Z,73.3198
2023-05-05T01:09:35.893Z,72.9919
2023-05-05T01:10:38.325Z,72.1298
2023-05-05T01:11:40.824Z,71.4906
2023-05-05T01:12:43.333Z,70.2963
2023-05-05T01:13:45.797Z,69.7618
2023-05-05T01:14:48.268Z,70.7556
2023-05-05T01:15:50.773Z,71.5060
2023-05-05T01:16:53.197Z,71.7445
2023-05-05T01:17:55.699Z,72.3189
2023-05-05T01:18:58.185Z,72.4013
2023-05-05T01:20:00.745Z,73.1346
2023-05-05T01:21:03.224Z,73.0275
2023-05-05T01:22:05.700Z,73.0921
2023-05-05T01:23:08.178Z,72.8911
2023-05-05T01:24:10.917Z,73.2976
2023-05-05T01:25:13.364Z,73.8422
2023-05-05T01:26:15.788Z,74.2649
2023-05-05T01:27:18.257Z,74.5476
2023-05-05T01:28:20.739Z,74.8183
2023-05-05T01:29:23.242Z,75.3142
2023-05-05T01:30:25.709Z,75.3938
2023-05-05T01:31:28.248Z,75.4802
2023-05-05T01:32:30.716Z,75.5466
2023-05-05T01:33:33.109Z,75.2938
2023-05-05T01:34:35.628Z,75.6514
2023-05-05T01:35:38.075Z,76.1070
2023-05-05T01:36:40.528Z,76.2294
2023-05-05T01:37:43.020Z,75.9925
2023-05-05T01:38:45.711Z,76.1545
2023-05-05T01:39:48.166Z,76.2255
2023-05-05T01:40:50.635Z,75.7076
2023-05-05T01:41:53.066Z,76.0768
2023-05-05T01:42:55.565Z,76.0596
2023-05-05T01:43:58.038Z,76.0725
2023-05-05T01:45:00.509Z,76.2309
2023-05-05T01:46:03.236Z,76.1034
2023-05-05T01:47:05.741Z,76.2004
2023-05-05T01:48:08.189Z,76.0485
2023-05-05T01:49:10.648Z,75.9818
2023-05-05T01:50:13.112Z,75.0151
2023-05-05T01:51:15.573Z,74.3335
2023-05-05T01:52:18.044Z,73.7248
2023-05-05T01:53:20.740Z,73.2708
2023-05-05T01:54:23.185Z,73.1249
2023-05-05T01:55:25.645Z,72.7533
2023-05-05T01:56:28.366Z,72.3888
2023-05-05T01:57:30.815Z,71.3907
2023-05-05T01:58:33.517Z,70.7067
2023-05-05T01:59:36.014Z,70.9381
2023-05-05T02:00:38.494Z,70.5564
2023-05-05T02:01:41.057Z,71.1453
2023-05-05T02:02:43.576Z,71.0042
2023-05-05T02:03:46.128Z,70.8202
2023-05-05T02:04:48.600Z,70.2140
2023-05-05T02:05:51.388Z,70.4627
2023-05-05T02:06:53.837Z,70.8910
2023-05-05T02:07:56.329Z,70.9591
2023-05-05T02:08:58.838Z,70.4701
2023-05-05T02:10:01.357Z,67.4895
2023-05-05T02:11:03.915Z,64.8991
2023-05-05T02:12:06.416Z,64.8870
2023-05-05T02:13:09.016Z,67.0660
2023-05-05T02:14:11.762Z,68.1027
2023-05-05T02:15:14.281Z,66.0362
2023-05-05T02:16:16.901Z,66.8525
2023-05-05T02:17:19.472Z,67.3895
2023-05-05T02:18:21.949Z,67.6226
2023-05-05T02:19:22.321Z,68.1041
2023-05-05T02:20:24.848Z,68.3021
2023-05-05T02:21:27.684Z,67.6545
2023-05-05T02:22:30.140Z,68.2708
2023-05-05T02:23:32.683Z,69.2164
2023-05-05T02:24:35.170Z,68.4680
2023-05-05T02:25:37.638Z,68.9251
2023-05-05T02:26:40.400Z,69.5252
2023-05-05T02:27:42.872Z,69.6998
2023-05-05T02:28:45.633Z,69.3988
2023-05-05T02:29:48.080Z,70.1596
2023-05-05T02:30:50.745Z,70.7292
2023-05-05T02:31:53.472Z,70.9679
2023-05-05T02:32:55.979Z,71.7316
2023-05-05T02:33:58.782Z,72.3065
2023-05-05T02:35:01.254Z,71.8196
2023-05-05T02:36:03.959Z,71.3933
2023-05-05T02:37:06.411Z,71.0839
2023-05-05T02:38:08.823Z,72.0660
2023-05-05T02:39:11.585Z,72.4807
2023-05-05T02:40:14.063Z,72.4618
2023-05-05T02:41:16.824Z,72.7491
2023-05-05T02:42:19.244Z,73.0940
2023-05-05T02:43:21.733Z,73.6914
2023-05-05T02:44:24.533Z,73.8122
2023-05-05T02:45:26.937Z,74.1279
2023-05-05T02:46:29.700Z,74.8408
2023-05-05T02:47:32.147Z,75.1168
2023-05-05T02:48:34.620Z,75.5057
2023-05-05T02:49:37.314Z,75.7154
2023-05-05T02:50:39.812Z,74.9262
2023-05-05T02:51:42.275Z,74.9501
2023-05-05T02:52:44.719Z,75.1142
2023-05-05T02:53:47.165Z,75.4279
2023-05-05T02:54:49.595Z,75.6628
2023-05-05T02:55:52.061Z,75.8898
2023-05-05T02:56:54.490Z,76.3802
2023-05-05T02:57:56.917Z,76.5677
2023-05-05T02:58:59.381Z,76.6920
2023-05-05T03:00:01.835Z,76.6692
2023-05-05T03:01:04.296Z,76.7482
2023-05-05T03:02:07.079Z,76.9224
2023-05-05T03:03:09.595Z,76.7283
2023-05-05T03:04:12.072Z,76.5610
2023-05-05T03:05:14.481Z,76.8726
2023-05-05T03:06:17.046Z,76.8183
2023-05-05T03:07:19.499Z,76.0954
2023-05-05T03:08:21.916Z,75.6618
2023-05-05T03:09:24.394Z,76.0157
2023-05-05T03:10:26.841Z,76.6437
2023-05-05T03:11:29.300Z,77.2444
2023-05-05T03:12:31.779Z,77.6142
2023-05-05T03:13:34.189Z,77.0000
2023-05-05T03:14:36.661Z,77.0217
2023-05-05T03:15:39.111Z,77.4908
2023-05-05T03:16:41.638Z,77.3893
2023-05-05T03:17:44.142Z,77.3783
2023-05-05T03:18:46.602Z,77.1762
2023-05-05T03:19:49.062Z,77.3702
2023-05-05T03:20:51.491Z,76.1927
2023-05-05T03:21:53.949Z,75.2254
2023-05-05T03:22:56.380Z,74.8562
2023-05-05T03:23:58.836Z,73.7181
2023-05-05T03:25:01.287Z,73.1404
2023-05-05T03:26:03.739Z,73.2670
2023-05-05T03:27:06.389Z,73.5741
2023-05-05T03:28:08.804Z,74.1151
2023-05-05T03:29:11.234Z,73.5247
2023-05-05T03:30:13.665Z,72.6580
2023-05-05T03:31:16.152Z,72.3214
2023-05-05T03:32:18.601Z,71.6255
2023-05-05T03:33:21.017Z,71.2819
2023-05-05T03:34:23.487Z,70.9762
2023-05-05T03:35:25.929Z,71.8558
2023-05-05T03:36:29.502Z,71.8509
2023-05-05T03:37:32.018Z,72.0415
2023-05-05T03:38:34.566Z,72.5684
2023-05-05T03:39:36.986Z,72.5590
2023-05-05T03:40:44.196Z,72.5807
2023-05-05T03:41:40.710Z,72.4774
2023-05-05T03:42:43.152Z,72.2074
2023-05-05T03:43:45.816Z,72.1013
2023-05-05T03:44:48.294Z,71.6837
2023-05-05T03:45:50.781Z,71.1341
2023-05-05T03:46:51.116Z,70.8715
2023-05-05T03:47:53.609Z,70.7688
2023-05-05T03:48:56.399Z,71.0500
2023-05-05T03:49:58.816Z,71.5930
2023-05-05T03:51:01.273Z,71.7371
2023-05-05T03:52:04.078Z,72.2535
2023-05-05T03:53:06.543Z,71.0976
2023-05-05T03:54:09.314Z,70.5712
2023-05-05T03:55:11.750Z,70.8126
2023-05-05T03:56:14.224Z,70.3300
2023-05-05T03:57:17.015Z,70.7184
2023-05-05T03:58:19.420Z,71.6013
2023-05-05T03:59:21.862Z,71.3339
2023-05-05T04:00:24.330Z,70.5727
2023-05-05T04:01:27.049Z,70.0891
2023-05-05T04:02:29.591Z,69.2818
2023-05-05T04:03:32.164Z,69.1008
2023-05-05T04:04:34.791Z,68.9583
2023-05-05T04:05:37.323Z,68.9983
2023-05-05T04:06:39.816Z,69.2687
2023-05-05T04:07:42.279Z,69.5881
2023-05-05T04:08:44.757Z,69.7158
2023-05-05T04:09:47.222Z,70.0763
2023-05-05T04:10:49.736Z,70.3638
2023-05-05T04:11:52.224Z,71.1944
2023-05-05T04:12:54.683Z,72.5821
2023-05-05T04:13:57.115Z,76.0027
2023-05-05T04:14:59.635Z,77.5896
2023-05-05T04:16:02.120Z,76.4497
2023-05-05T04:17:04.607Z,75.6697
2023-05-05T04:18:07.104Z,75.9225
2023-05-05T04:19:09.570Z,76.2721
2023-05-05T04:20:12.047Z,76.5961
2023-05-05T04:21:14.492Z,75.9108
2023-05-05T04:22:16.937Z,75.5898
2023-05-05T04:23:19.380Z,75.1983
2023-05-05T04:24:21.831Z,75.2066
2023-05-05T04:25:24.285Z,74.9316
2023-05-05T04:26:26.711Z,72.9131
2023-05-05T04:27:29.228Z,70.1290
2023-05-05T04:28:31.661Z,71.2541
2023-05-05T04:29:34.152Z,70.3744
2023-05-05T04:30:36.636Z,69.4575
2023-05-05T04:31:39.114Z,68.8901
2023-05-05T04:32:41.539Z,70.0037
2023-05-05T04:33:44.105Z,71.3182
2023-05-05T04:34:46.609Z,70.7552
2023-05-05T04:35:49.028Z,69.3432
2023-05-05T04:36:51.478Z,66.9903
2023-05-05T04:37:53.904Z,63.8479
2023-05-05T04:38:56.433Z,67.6371
2023-05-05T04:39:58.900Z,70.1498
2023-05-05T04:41:01.358Z,68.4846
2023-05-05T04:42:03.867Z,67.5520
2023-05-05T04:43:06.276Z,67.4052
2023-05-05T04:44:08.745Z,67.7309
2023-05-05T04:45:11.169Z,68.4340
2023-05-05T04:46:13.691Z,69.2477
2023-05-05T04:47:16.429Z,70.0650
2023-05-05T04:48:18.905Z,70.6130
2023-05-05T04:49:21.411Z,71.7113
2023-05-05T04:50:23.835Z,71.9686
2023-05-05T04:51:26.296Z,72.6417
2023-05-05T04:52:28.781Z,73.8619
2023-05-05T04:53:31.234Z,74.2570
2023-05-05T04:54:33.729Z,74.2245
2023-05-05T04:55:36.167Z,73.8002
2023-05-05T04:56:38.641Z,71.4901
2023-05-05T04:57:41.114Z,69.9279
2023-05-05T04:58:43.575Z,68.9081
2023-05-05T04:59:46.035Z,68.7072
2023-05-05T05:00:48.500Z,67.5003
2023-05-05T05:01:51.185Z,67.5703
2023-05-05T05:02:53.715Z,66.4822
2023-05-05T05:03:56.224Z,64.6755
2023-05-05T05:04:58.670Z,64.8872
2023-05-05T05:06:01.108Z,64.9490
2023-05-05T05:07:03.619Z,66.8684
2023-05-05T05:08:06.026Z,67.8546
2023-05-05T05:09:08.498Z,67.7418
2023-05-05T05:10:11.108Z,69.9838
2023-05-05T05:11:13.657Z,72.6702
2023-05-05T05:12:16.145Z,72.6855
2023-05-05T05:13:18.747Z,73.0320
2023-05-05T05:14:21.252Z,73.8246
2023-05-05T05:15:23.719Z,73.9895
2023-05-05T05:16:26.347Z,73.9559
2023-05-05T05:17:28.839Z,74.6032
2023-05-05T05:18:31.286Z,74.8345
2023-05-05T05:19:33.752Z,73.5311
2023-05-05T05:20:36.218Z,72.7770
2023-05-05T05:21:38.665Z,74.8822
2023-05-05T05:22:41.150Z,73.9779
2023-05-05T05:23:43.606Z,75.0237
2023-05-05T05:24:46.188Z,76.2169
2023-05-05T05:25:48.674Z,76.5855
2023-05-05T05:26:50.891Z,76.3695
2023-05-05T05:28:06.131Z,77.0753
2023-05-05T05:28:54.398Z,76.8504
2023-05-05T05:29:57.083Z,77.2261
2023-05-05T05:30:59.550Z,77.4858
2023-05-05T05:32:02.106Z,77.4389
2023-05-05T05:33:04.539Z,77.8600
2023-05-05T05:34:04.895Z,77.4964
2023-05-05T05:35:07.370Z,75.5424
2023-05-05T05:36:09.817Z,75.5943
2023-05-05T05:37:12.512Z,76.3898
2023-05-05T05:38:14.991Z,76.6893
2023-05-05T05:39:17.670Z,75.7922
2023-05-05T05:40:20.098Z,75.9261
2023-05-05T05:41:22.584Z,76.1465
2023-05-05T05:42:25.251Z,76.1825
2023-05-05T05:43:27.726Z,74.8340
2023-05-05T05:44:30.430Z,74.0316
2023-05-05T05:45:32.910Z,74.7152
2023-05-05T05:46:35.452Z,73.9987
2023-05-05T05:47:38.232Z,75.2991
2023-05-05T05:48:40.694Z,74.6112
2023-05-05T05:49:43.383Z,74.9869
2023-05-05T05:50:45.990Z,75.0072
2023-05-05T05:51:48.420Z,75.0248
2023-05-05T05:52:50.838Z,74.6510
2023-05-05T05:53:53.361Z,72.4983
2023-05-05T05:54:55.780Z,69.2564
2023-05-05T05:55:58.263Z,67.0489
2023-05-05T05:57:00.826Z,67.4055
2023-05-05T05:58:03.257Z,67.1755
2023-05-05T05:59:05.712Z,65.7716
2023-05-05T06:00:08.669Z,64.4566
2023-05-05T06:01:11.379Z,64.9616
2023-05-05T06:02:14.176Z,65.9317
2023-05-05T06:03:16.868Z,65.2780
2023-05-05T06:04:19.678Z,65.1721
2023-05-05T06:05:22.125Z,67.1076
2023-05-05T06:06:24.583Z,68.8232
2023-05-05T06:07:30.688Z,69.3810
2023-05-05T06:08:33.150Z,67.3756
2023-05-05T06:09:35.922Z,69.0473
2023-05-05T06:10:38.357Z,68.7414
2023-05-05T06:11:40.798Z,67.6064
2023-05-05T06:12:43.439Z,66.3344
2023-05-05T06:13:45.884Z,63.8515
2023-05-05T06:14:48.590Z,63.5717
2023-05-05T06:15:51.096Z,62.3832
2023-05-05T06:16:53.619Z,65.7446
2023-05-05T06:17:56.061Z,62.9588
2023-05-05T06:18:58.536Z,61.9418
2023-05-05T06:20:01.348Z,61.7472
2023-05-05T06:21:03.802Z,62.0809
2023-05-05T06:22:06.281Z,61.8217
2023-05-05T06:23:08.742Z,59.0153
2023-05-05T06:24:11.243Z,56.8048
2023-05-05T06:25:13.927Z,57.0826
2023-05-05T06:26:16.418Z,58.8941
2023-05-05T06:27:18.884Z,57.7570
2023-05-05T06:28:21.353Z,57.4557
2023-05-05T06:29:23.958Z,60.8709
2023-05-05T06:30:26.449Z,59.4869
2023-05-05T06:31:28.977Z,58.6667
2023-05-05T06:32:31.435Z,56.9149
2023-05-05T06:33:33.881Z,58.3106
2023-05-05T06:34:36.617Z,56.9837
2023-05-05T06:35:39.044Z,58.3007
2023-05-05T06:36:41.604Z,58.6502
2023-05-05T06:37:44.392Z,58.2922
2023-05-05T06:38:46.828Z,57.6747
2023-05-05T06:39:49.314Z,57.3359
2023-05-05T06:40:51.796Z,57.2946
2023-05-05T06:41:54.271Z,56.1002
2023-05-05T06:42:56.669Z,57.9157
2023-05-05T06:43:59.103Z,57.7579
2023-05-05T06:45:01.902Z,61.0302
2023-05-05T06:46:04.327Z,60.2473
2023-05-05T06:47:06.837Z,58.1642
2023-05-05T06:48:09.335Z,57.4769
2023-05-05T06:49:11.766Z,58.4934
2023-05-05T06:50:14.277Z,59.4761
2023-05-05T06:51:16.756Z,57.5865
2023-05-05T06:52:19.242Z,56.3140
2023-05-05T06:53:21.701Z,54.9450
2023-05-05T06:54:24.198Z,56.6940
2023-05-05T06:55:26.875Z,54.9717
2023-05-05T06:56:29.364Z,52.4276
2023-05-05T06:57:31.880Z,53.4796
2023-05-05T06:58:34.358Z,53.6059
2023-05-05T06:59:36.837Z,52.3176
2023-05-05T07:00:39.412Z,51.3050
2023-05-05T07:01:41.895Z,53.1588
2023-05-05T07:02:42.702Z,53.0031
2023-05-05T07:03:45.284Z,53.7201
2023-05-05T07:04:48.026Z,54.4643
2023-05-05T07:05:50.523Z,55.4411
2023-05-05T07:06:53.005Z,53.8926
2023-05-05T07:07:55.503Z,53.5490
2023-05-05T07:08:57.976Z,52.3751
2023-05-05T07:10:00.483Z,53.0140
2023-05-05T07:11:02.960Z,54.2167
2023-05-05T07:12:05.412Z,53.5037
2023-05-05T07:13:07.977Z,53.7549
2023-05-05T07:14:10.535Z,53.0464
2023-05-05T07:15:26.933Z,50.4125
2023-05-05T07:16:14.190Z,48.6748
2023-05-05T07:17:16.693Z,49.5809
2023-05-05T07:18:19.200Z,51.1667
2023-05-05T07:19:21.717Z,51.0692
2023-05-05T07:20:24.445Z,50.2178
2023-05-05T07:21:27.081Z,51.1263
2023-05-05T07:22:29.623Z,55.2241
2023-05-05T07:23:32.163Z,52.3126
2023-05-05T07:24:34.604Z,50.6053
2023-05-05T07:25:37.119Z,49.3196
2023-05-05T07:26:39.612Z,54.2410
2023-05-05T07:28:42.438Z,52.7471
2023-05-05T07:29:44.957Z,52.1617
2023-05-05T07:30:47.482Z,53.1502
2023-05-05T07:31:50.040Z,52.9992
2023-05-05T07:32:52.541Z,54.3047
2023-05-05T07:33:55.001Z,52.5274
2023-05-05T07:34:57.507Z,54.8073
2023-05-05T07:36:00.457Z,55.3195
2023-05-05T07:37:02.957Z,54.1146
2023-05-05T07:38:05.652Z,50.9617
2023-05-05T07:39:08.448Z,54.1733
2023-05-05T07:40:11.145Z,53.3323
2023-05-05T07:41:13.787Z,52.8758
2023-05-05T07:42:16.282Z,51.1394
2023-05-05T07:43:18.810Z,51.4166
2023-05-05T07:44:21.344Z,53.5478
2023-05-05T07:45:24.112Z,54.2775
2023-05-05T07:46:26.678Z,54.7193
2023-05-05T07:47:29.200Z,56.0054
2023-05-05T07:48:31.666Z,53.8125
2023-05-05T07:49:34.411Z,54.3119
2023-05-05T07:51:40.541Z,51.3659
2023-05-05T07:52:48.416Z,54.8609
2023-05-05T07:53:44.152Z,52.6529
2023-05-05T07:54:46.685Z,54.8097
2023-05-05T07:55:49.405Z,56.1002
2023-05-05T07:56:51.975Z,56.5445
2023-05-05T07:57:54.896Z,55.7813
2023-05-05T07:58:57.409Z,54.9280
2023-05-05T08:00:07.557Z,55.8388
2023-05-05T08:01:10.208Z,53.2487
2023-05-05T08:03:13.023Z,52.2745
2023-05-05T08:04:15.595Z,48.8575
2023-05-05T08:05:18.151Z,52.3247
2023-05-05T08:06:20.655Z,53.3234
2023-05-05T08:07:23.527Z,53.0003
2023-05-05T08:08:26.081Z,51.0867
2023-05-05T08:09:28.557Z,48.0498
2023-05-05T08:10:31.323Z,49.0646
2023-05-05T08:11:33.864Z,49.0023
2023-05-05T08:12:36.327Z,49.0429
2023-05-05T08:13:38.836Z,49.4740
2023-05-05T08:14:41.350Z,51.2726
2023-05-05T08:15:44.062Z,49.6533
2023-05-05T08:16:46.558Z,47.9187
2023-05-05T08:17:49.492Z,47.4791
2023-05-05T08:18:52.195Z,47.7769
2023-05-05T08:19:54.678Z,48.2839
2023-05-05T08:20:57.160Z,44.5304
2023-05-05T08:22:01.205Z,42.5933
2023-05-05T08:23:00.322Z,44.0794
2023-05-05T08:24:02.782Z,50.7093
2023-05-05T08:25:05.415Z,50.3809
2023-05-05T08:27:08.187Z,50.2923
2023-05-05T08:28:10.681Z,48.1778
2023-05-05T08:30:14.119Z,47.2218
2023-05-05T08:31:16.635Z,46.3758
2023-05-05T08:32:19.128Z,47.9088
2023-05-05T08:33:21.624Z,47.5591
2023-05-05T08:34:24.113Z,45.2242
2023-05-05T08:35:26.611Z,44.4666
2023-05-05T08:36:29.103Z,45.9159
2023-05-05T08:37:31.672Z,48.4957
2023-05-05T08:38:34.146Z,48.4242
2023-05-05T08:39:36.637Z,48.9163
2023-05-05T08:40:39.147Z,44.7558
2023-05-05T08:41:41.647Z,44.8575
2023-05-05T08:42:44.155Z,47.2862
2023-05-05T08:43:46.652Z,48.6204
2023-05-05T08:44:49.641Z,50.2407
2023-05-05T08:45:52.155Z,51.0036
2023-05-05T08:46:54.694Z,51.0956
2023-05-05T08:47:57.168Z,48.9142
2023-05-05T08:48:59.672Z,52.3732
2023-05-05T08:50:02.283Z,51.6587
2023-05-05T08:51:05.670Z,51.3344
2023-05-05T08:52:08.256Z,51.6850
2023-05-05T08:53:10.742Z,53.2920
2023-05-05T08:54:13.245Z,52.5811
2023-05-05T08:55:15.826Z,51.1438
2023-05-05T08:57:18.689Z,52.1670
2023-05-05T08:58:21.188Z,48.8264
2023-05-05T08:59:23.672Z,45.8929
2023-05-05T09:00:26.164Z,47.8318
2023-05-05T09:02:29.511Z,46.7598
2023-05-05T09:03:32.040Z,47.8422
2023-05-05T09:04:34.614Z,44.8254
2023-05-05T09:05:37.356Z,45.2137
2023-05-05T09:06:39.805Z,46.8815
2023-05-05T09:07:42.312Z,45.0550
2023-05-05T09:08:44.596Z,44.6581
2023-05-05T09:09:47.072Z,47.1118
2023-05-05T09:10:52.929Z,48.3824
2023-05-05T09:11:55.487Z,48.5266
2023-05-05T09:12:57.989Z,50.2789
2023-05-05T09:14:00.494Z,48.5784
2023-05-05T09:15:02.996Z,49.1352
2023-05-05T09:16:05.525Z,46.2837
2023-05-05T09:17:08.002Z,49.8198
2023-05-05T09:18:10.572Z,50.0391
2023-05-05T09:19:13.019Z,47.8056
2023-05-05T09:20:15.519Z,49.0118
2023-05-05T09:21:18.003Z,46.7974
2023-05-05T09:22:20.492Z,50.7589
2023-05-05T09:23:22.991Z,52.3933
2023-05-05T09:24:25.485Z,47.7615
2023-05-05T09:25:27.978Z,46.9990
2023-05-05T09:26:30.486Z,46.7731
2023-05-05T09:27:32.986Z,48.7047
2023-05-05T09:28:35.490Z,48.9469
2023-05-05T09:29:38.002Z,48.2685
2023-05-05T09:30:40.269Z,47.8551
2023-05-05T09:31:42.769Z,42.6154
2023-05-05T09:32:43.849Z,44.0185
2023-05-05T09:34:47.003Z,44.2513
2023-05-05T09:35:49.239Z,47.9762
2023-05-05T09:36:51.743Z,47.5816
2023-05-05T09:37:54.235Z,47.6403
2023-05-05T09:38:58.780Z,45.6976
2023-05-05T09:39:57.487Z,43.9316
2023-05-05T09:40:59.970Z,43.1727
2023-05-05T09:42:02.437Z,43.7028
2023-05-05T09:43:04.962Z,41.8976
2023-05-05T09:44:07.461Z,42.3625
2023-05-05T09:45:10.109Z,42.9097
2023-05-05T09:46:12.662Z,43.2434
2023-05-05T09:47:28.539Z,44.1020
2023-05-05T09:48:16.498Z,46.7136
2023-05-05T09:49:18.998Z,46.1847
2023-05-05T09:50:21.492Z,44.7513
2023-05-05T09:51:23.950Z,44.7426
2023-05-05T09:52:26.502Z,46.3744
2023-05-05T09:53:28.980Z,47.4986
2023-05-05T09:54:31.487Z,48.2365
2023-05-05T09:55:34.324Z,45.8148
2023-05-05T09:56:36.834Z,43.7680
2023-05-05T09:57:39.372Z,41.8567
2023-05-05T09:58:41.967Z,42.1800
2023-05-05T09:59:44.477Z,44.7516
2023-05-05T10:00:46.989Z,45.4436
2023-05-05T10:01:49.510Z,47.7121
2023-05-05T10:02:52.034Z,47.5501
2023-05-05T10:03:54.516Z,44.1934
2023-05-05T10:04:57.144Z,45.4101
2023-05-05T10:05:59.674Z,46.4012
2023-05-05T10:07:02.179Z,47.0015
2023-05-05T10:08:04.679Z,45.7747
2023-05-05T10:09:07.177Z,43.3774
2023-05-05T10:10:09.862Z,45.0328
2023-05-05T10:11:12.640Z,48.1896
2023-05-05T10:12:15.357Z,47.6374
2023-05-05T10:13:17.944Z,49.1906
2023-05-05T10:14:20.551Z,47.4153
2023-05-05T10:15:23.047Z,46.5780
2023-05-05T10:16:26.796Z,43.6191
2023-05-05T10:17:26.287Z,44.5619
2023-05-05T10:18:28.782Z,46.2733
2023-05-05T10:19:31.265Z,44.6463
2023-05-05T10:20:33.795Z,46.9001
2023-05-05T10:21:36.283Z,48.4625
2023-05-05T10:22:38.933Z,47.2539
2023-05-05T10:23:41.418Z,46.0211
2023-05-05T10:24:43.915Z,44.2409
2023-05-05T10:25:46.434Z,42.2342
2023-05-05T10:26:48.921Z,43.7206
2023-05-05T10:27:51.694Z,43.8223
2023-05-05T10:28:54.176Z,41.4950
2023-05-05T10:29:56.699Z,45.0276
2023-05-05T10:30:59.202Z,48.6176
2023-05-05T10:32:08.739Z,49.9854
2023-05-05T10:33:27.249Z,50.9081
2023-05-05T10:34:08.464Z,50.1503
2023-05-05T10:35:10.979Z,49.6245
2023-05-05T10:36:13.533Z,46.5833
2023-05-05T10:37:15.996Z,49.5968
2023-05-05T10:38:18.531Z,47.8549
2023-05-05T10:39:21.010Z,46.8797
2023-05-05T10:40:23.555Z,49.0737
2023-05-05T10:41:26.192Z,50.2691
2023-05-05T10:42:28.975Z,49.4658
2023-05-05T10:43:31.497Z,49.9175
2023-05-05T10:44:33.985Z,49.2471
2023-05-05T10:45:36.570Z,46.0602
2023-05-05T10:46:39.175Z,45.0016
2023-05-05T10:47:41.700Z,44.2095
2023-05-05T10:48:44.273Z,47.3528
2023-05-05T10:49:46.782Z,47.8914
2023-05-05T10:50:49.288Z,47.5197
2023-05-05T10:52:52.011Z,47.7144
2023-05-05T10:54:02.225Z,44.8631
2023-05-05T10:55:04.705Z,47.2607
2023-05-05T10:56:07.187Z,47.2759
2023-05-05T10:57:09.714Z,46.9727
2023-05-05T10:58:12.239Z,45.5301
2023-05-05T10:59:15.569Z,46.6087
2023-05-05T11:00:18.104Z,45.9014
2023-05-05T11:01:20.688Z,45.3022
2023-05-05T11:02:23.343Z,47.9354
2023-05-05T11:03:23.397Z,49.3060
2023-05-05T11:04:25.987Z,48.5914
2023-05-05T11:05:28.457Z,46.7362
2023-05-05T11:06:31.172Z,45.3371
2023-05-05T11:07:33.671Z,46.5443
2023-05-05T11:08:36.149Z,45.3560
2023-05-05T11:09:38.667Z,46.7804
2023-05-05T11:10:41.135Z,48.4140
2023-05-05T11:11:43.791Z,46.0366
2023-05-05T11:12:46.350Z,47.7356
2023-05-05T11:13:49.049Z,43.8908
2023-05-05T11:14:51.628Z,45.6217
2023-05-05T11:15:54.235Z,46.1607
2023-05-05T11:16:56.949Z,44.2132
2023-05-05T11:17:59.597Z,42.2616
2023-05-05T11:19:02.111Z,41.7946
2023-05-05T11:20:04.670Z,42.0237
2023-05-05T11:21:07.168Z,40.9034
2023-05-05T11:22:09.672Z,41.8953
2023-05-05T11:23:14.003Z,42.6579
2023-05-05T11:24:14.962Z,40.8299
2023-05-05T11:25:18.255Z,40.3629
2023-05-05T11:26:26.008Z,41.5510
2023-05-05T11:27:21.180Z,45.0917
2023-05-05T11:28:23.729Z,41.8040
2023-05-05T11:29:26.222Z,40.7726
2023-05-05T11:30:29.409Z,42.5018
2023-05-05T11:31:32.029Z,43.0865
2023-05-05T11:32:34.604Z,40.3493
2023-05-05T11:33:37.099Z,42.3943
2023-05-05T11:34:39.599Z,42.5562
2023-05-05T11:35:42.082Z,43.0766
2023-05-05T11:36:44.589Z,44.0268
2023-05-05T11:37:47.093Z,44.8113
2023-05-05T11:38:49.585Z,44.6065
2023-05-05T11:39:52.075Z,43.2103
2023-05-05T11:40:54.783Z,44.8844
2023-05-05T11:41:57.241Z,46.6382
2023-05-05T11:42:59.733Z,44.7678
2023-05-05T11:44:02.240Z,43.5335
2023-05-05T11:45:04.724Z,41.0339
2023-05-05T11:46:07.262Z,43.8575
2023-05-05T11:47:09.726Z,43.7684
2023-05-05T11:48:12.532Z,45.7992
2023-05-05T11:49:14.998Z,44.5401
2023-05-05T11:50:17.738Z,42.2974
2023-05-05T11:51:20.257Z,42.1845
2023-05-05T11:52:22.750Z,42.2105
2023-05-05T11:53:25.295Z,43.2778
2023-05-05T11:54:27.829Z,43.9572
2023-05-05T11:55:30.287Z,45.1435
2023-05-05T11:56:32.798Z,44.6243
2023-05-05T11:57:35.286Z,43.1882
2023-05-05T11:58:37.791Z,43.4827
2023-05-05T11:59:40.290Z,46.3022
2023-05-05T12:00:42.799Z,44.6170
2023-05-05T12:01:45.308Z,42.5733
2023-05-05T12:02:47.862Z,44.5996
2023-05-05T12:03:50.746Z,44.2757
2023-05-05T12:04:53.380Z,42.6140
2023-05-05T12:05:56.032Z,41.9152
2023-05-05T12:06:58.461Z,41.7224
2023-05-05T12:08:00.936Z,44.5345
2023-05-05T12:09:03.409Z,42.6699
2023-05-05T12:10:05.966Z,43.5209
2023-05-05T12:11:08.458Z,41.6692
2023-05-05T12:12:10.946Z,40.1652
2023-05-05T12:13:13.468Z,39.4773
2023-05-05T12:14:16.103Z,42.7992
2023-05-05T12:15:18.560Z,41.6701
2023-05-05T12:16:21.147Z,41.4857
2023-05-05T12:17:23.625Z,43.2305
2023-05-05T12:18:26.085Z,42.5186
2023-05-05T12:19:28.579Z,44.1833
2023-05-05T12:20:31.076Z,42.5271
2023-05-05T12:21:33.566Z,40.8934
2023-05-05T12:22:36.118Z,39.4119
2023-05-05T12:23:38.627Z,42.7288
2023-05-05T12:24:41.104Z,41.6802
2023-05-05T12:25:43.559Z,42.2463
2023-05-05T12:26:46.066Z,41.5957
2023-05-05T12:27:48.534Z,40.8561
2023-05-05T12:28:51.057Z,41.4562
2023-05-05T12:29:53.541Z,40.8102
2023-05-05T12:30:56.053Z,42.6167
2023-05-05T12:31:58.600Z,42.0659
2023-05-05T12:33:01.165Z,42.0253
2023-05-05T12:34:03.650Z,42.6415
2023-05-05T12:35:06.155Z,42.4773
2023-05-05T12:36:08.621Z,41.9349
2023-05-05T12:37:11.138Z,42.0416
2023-05-05T12:38:13.599Z,42.5025
2023-05-05T12:39:16.100Z,42.8235
2023-05-05T12:40:18.650Z,44.0567
2023-05-05T12:41:21.159Z,42.3322
2023-05-05T12:42:23.626Z,40.2037
2023-05-05T12:43:26.140Z,43.1844
2023-05-05T12:44:28.468Z,41.4238
2023-05-05T12:45:31.282Z,42.3567